Pagrindinis puslapis
METAR-TAF:

METAR-TAF

Oro uostai :

Rangūnas, Mianmaras

platuma: 16-46N, ilguma: 096-10E, Aukštis: 14 m

Dabartinis oras

Ataskaita buvo paskelbta 1 valandą ir 2 minutes, ne 19:30 UTC
Vėjas 4 kt iš Pietų/Pietvakarių
Temperatūra 26°C
Drėgmė 94%
Slėgis 1007 hPa
Matomumas: 6000 m
Su prošvaistėmis ne aukštis 1500 ft
Mažai debesys ne aukštis 2000 ft, Liūtiniai kamuoliniai debesys.
Su prošvaistėmis ne aukštis 11000 ft

METAR: VYYY 171930Z 20004KT 6000 BKN015 FEW020CB BKN110 26/25 Q1007

Laikas: 03:02 (20:32 UTC)

Prognozė

Ataskaita buvo paskelbta 3 valandos ir 32 minutes, ne 17:00 UTC
Prognozė galioja nuo 17 metu 18 UTC su 18 metu 18 UTC
Vėjas 8 kt iš Pietų/Pietvakarių
Matomumas: 7000 m
Su prošvaistėmis ne aukštis 1500 ft
Mažai debesys ne aukštis 2000 ft, Liūtiniai kamuoliniai debesys.
Su prošvaistėmis ne aukštis 11000 ft
Laikinai
nuo 17 metu 18 UTC su 17 metu 24 UTC
Matomumas: 5000 m
lietus

TAF: VYYY 171700Z 1718/1818 20008KT 7000 BKN015 FEW020CB BKN110 TEMPO 1718/1724 5000 -RA

Orai ataskaitas ir orų prognozės (METAR, TAF).

turimą stotys yra geltonos ir raudonos taškus žemėlapyje.

Perkelti pele per norėdami pamatyti stoties vardą.

Tada spustelėkite, norėdami matyti oro stebėjimo ir prognozės.

Norėdami pakeisti žemėlapį: spustelėkite ant žalios mygtukų su juodo kryžiaus žemyn,; žalią mygtuką su brūkšneliu, jei norite nutolinti; arba žalių rodyklių gretimoms žemėlapius.


METAR-TAF: